createdAt,value
2018-11-26T00:00:17.358Z,45.70
2018-11-26T00:02:45.931Z,43.87
2018-11-26T00:05:14.460Z,46.73
2018-11-26T00:07:42.975Z,51.20
2018-11-26T00:10:22.601Z,48.83
2018-11-26T00:12:51.126Z,49.43
2018-11-26T00:15:19.629Z,48.30
2018-11-26T00:17:48.132Z,46.40
2018-11-26T00:20:16.621Z,44.50
2018-11-26T00:22:45.175Z,43.67
2018-11-26T00:25:13.663Z,42.73
2018-11-26T00:27:42.191Z,43.37
2018-11-26T00:30:10.723Z,42.03
2018-11-26T00:32:39.226Z,41.07
2018-11-26T00:35:07.730Z,42.37
2018-11-26T00:37:36.287Z,42.80
2018-11-26T00:40:05.288Z,41.90
2018-11-26T00:42:33.793Z,45.87
2018-11-26T00:45:02.289Z,45.37
2018-11-26T00:47:30.848Z,43.13
2018-11-26T00:49:59.334Z,43.73
2018-11-26T00:52:27.882Z,44.60
2018-11-26T00:54:56.424Z,45.80
2018-11-26T00:57:24.955Z,42.50
2018-11-26T00:59:53.486Z,42.40
2018-11-26T01:02:22.037Z,41.90
2018-11-26T01:04:50.523Z,41.43
2018-11-26T01:07:19.069Z,42.03
2018-11-26T01:09:47.582Z,44.03
2018-11-26T01:12:16.125Z,41.73
2018-11-26T01:14:44.626Z,42.90
2018-11-26T01:17:13.154Z,41.97
2018-11-26T01:19:41.625Z,39.97
2018-11-26T01:22:10.155Z,42.43
2018-11-26T01:24:38.639Z,38.73
2018-11-26T01:27:07.178Z,41.37
2018-11-26T01:29:35.677Z,37.23
2018-11-26T01:32:04.274Z,39.33
2018-11-26T01:34:32.763Z,39.53
2018-11-26T01:37:01.325Z,36.97
2018-11-26T01:39:29.831Z,39.07
2018-11-26T01:41:58.367Z,40.70
2018-11-26T01:44:26.924Z,37.97
2018-11-26T01:46:55.469Z,37.27
2018-11-26T01:49:23.973Z,42.90
2018-11-26T01:51:52.531Z,40.50
2018-11-26T01:54:21.117Z,42.97
2018-11-26T01:56:49.601Z,40.33
2018-11-26T01:59:18.131Z,40.27
2018-11-26T02:01:47.532Z,40.30
2018-11-26T02:04:16.024Z,36.77
2018-11-26T02:06:44.480Z,42.07
2018-11-26T02:09:13.019Z,37.70
2018-11-26T02:11:41.513Z,36.47
2018-11-26T02:14:10.050Z,37.10
2018-11-26T02:16:38.588Z,36.47
2018-11-26T02:19:07.174Z,39.17
2018-11-26T02:21:35.773Z,37.57
2018-11-26T02:24:04.315Z,36.60
2018-11-26T02:26:32.831Z,35.07
2018-11-26T02:29:01.383Z,34.33
2018-11-26T02:31:29.940Z,33.87
2018-11-26T02:33:58.496Z,34.40
2018-11-26T02:36:26.985Z,34.17
2018-11-26T02:38:55.569Z,32.83
2018-11-26T02:41:24.135Z,32.90
2018-11-26T02:43:52.669Z,36.97
2018-11-26T02:46:21.162Z,34.77
2018-11-26T02:48:49.687Z,35.57
2018-11-26T02:51:18.235Z,35.27
2018-11-26T02:53:46.799Z,34.90
2018-11-26T02:56:15.340Z,34.77
2018-11-26T02:58:43.867Z,30.37
2018-11-26T03:01:12.394Z,31.53
2018-11-26T03:03:40.955Z,29.70
2018-11-26T03:06:09.472Z,30.40
2018-11-26T03:08:38.093Z,29.67
2018-11-26T03:11:06.628Z,27.30
2018-11-26T03:13:35.163Z,26.13
2018-11-26T03:16:03.670Z,24.73
2018-11-26T03:18:32.217Z,25.63
2018-11-26T03:21:00.752Z,22.03
2018-11-26T03:23:29.271Z,21.47
2018-11-26T03:25:57.820Z,25.63
2018-11-26T03:28:26.356Z,23.83
2018-11-26T03:30:54.831Z,24.77
2018-11-26T03:33:23.348Z,23.30
2018-11-26T03:35:51.826Z,22.00
2018-11-26T03:38:29.673Z,23.57
2018-11-26T03:40:58.186Z,22.90
2018-11-26T03:43:26.738Z,20.30
2018-11-26T03:45:55.274Z,21.70
2018-11-26T03:48:23.783Z,21.13
2018-11-26T03:50:52.287Z,24.73
2018-11-26T03:53:20.817Z,19.23
2018-11-26T03:55:49.284Z,20.13
2018-11-26T03:58:17.792Z,20.43
2018-11-26T04:00:46.358Z,19.17
2018-11-26T04:03:14.891Z,21.97
2018-11-26T04:05:43.375Z,21.17
2018-11-26T04:08:11.873Z,19.17
2018-11-26T04:10:40.372Z,18.67
2018-11-26T04:13:08.862Z,20.80
2018-11-26T04:15:37.369Z,19.60
2018-11-26T04:18:05.963Z,21.00
2018-11-26T04:20:34.936Z,19.30
2018-11-26T04:23:03.431Z,19.73
2018-11-26T04:25:32.000Z,21.97
2018-11-26T04:28:00.500Z,21.47
2018-11-26T04:30:29.044Z,19.97
2018-11-26T04:32:57.579Z,24.50
2018-11-26T04:35:26.091Z,22.67
2018-11-26T04:37:54.581Z,21.50
2018-11-26T04:40:23.142Z,22.10
2018-11-26T04:42:51.651Z,24.23
2018-11-26T04:45:20.219Z,23.33
2018-11-26T04:47:48.732Z,23.43
2018-11-26T04:50:17.268Z,25.17
2018-11-26T04:52:45.782Z,25.37
2018-11-26T04:55:14.337Z,23.80
2018-11-26T04:57:43.046Z,24.87
2018-11-26T05:00:14.381Z,22.47
2018-11-26T05:02:43.041Z,23.27
2018-11-26T05:05:12.721Z,23.53
2018-11-26T05:07:41.209Z,21.90
2018-11-26T05:10:11.896Z,22.57
2018-11-26T05:12:40.452Z,22.50
2018-11-26T05:15:11.352Z,23.10
2018-11-26T05:17:39.895Z,22.37
2018-11-26T05:20:11.049Z,22.63
2018-11-26T05:22:39.659Z,23.27
2018-11-26T05:25:09.566Z,19.67
2018-11-26T05:27:38.107Z,21.13
2018-11-26T05:30:10.827Z,22.37
2018-11-26T05:32:39.323Z,21.67
2018-11-26T05:35:09.192Z,20.37
2018-11-26T05:37:37.671Z,20.63
2018-11-26T05:40:08.888Z,20.57
2018-11-26T05:42:37.401Z,20.60
2018-11-26T05:45:09.101Z,21.67
2018-11-26T05:47:37.555Z,20.13
2018-11-26T05:50:08.447Z,22.23
2018-11-26T05:52:37.498Z,21.67
2018-11-26T05:55:06.793Z,21.90
2018-11-26T05:57:35.317Z,18.83
2018-11-26T06:00:03.970Z,21.47
2018-11-26T06:02:32.443Z,24.13
2018-11-26T06:05:00.975Z,22.80
2018-11-26T06:07:29.490Z,19.70
2018-11-26T06:09:58.850Z,20.50
2018-11-26T06:12:27.344Z,20.93
2018-11-26T06:14:55.863Z,20.43
2018-11-26T06:17:24.379Z,21.83
2018-11-26T06:19:52.893Z,20.03
2018-11-26T06:22:21.474Z,19.07
2018-11-26T06:24:49.981Z,20.17
2018-11-26T06:27:18.491Z,19.03
2018-11-26T06:29:47.037Z,19.47
2018-11-26T06:32:15.535Z,21.70
2018-11-26T06:34:44.135Z,19.33
2018-11-26T06:37:12.640Z,19.60
2018-11-26T06:39:41.273Z,19.17
2018-11-26T06:42:09.766Z,20.30
2018-11-26T06:44:38.377Z,20.97
2018-11-26T06:47:06.856Z,21.80
2018-11-26T06:49:35.391Z,22.90
2018-11-26T06:52:03.905Z,22.93
2018-11-26T06:54:32.416Z,21.60
2018-11-26T06:57:00.923Z,18.93
2018-11-26T06:59:29.449Z,21.67
2018-11-26T07:01:57.943Z,20.37
2018-11-26T07:04:26.555Z,19.77
2018-11-26T07:06:55.095Z,20.53
2018-11-26T07:09:23.555Z,22.60
2018-11-26T07:11:52.052Z,21.20
2018-11-26T07:14:20.550Z,21.17
2018-11-26T07:16:49.199Z,23.27
2018-11-26T07:19:17.749Z,24.20
2018-11-26T07:21:46.275Z,23.20
2018-11-26T07:24:14.736Z,24.83
2018-11-26T07:26:43.264Z,24.10
2018-11-26T07:29:11.720Z,21.87
2018-11-26T07:31:40.236Z,23.60
2018-11-26T07:34:08.735Z,22.87
2018-11-26T07:36:37.237Z,23.07
2018-11-26T07:39:08.543Z,24.70
2018-11-26T07:41:37.035Z,23.50
2018-11-26T07:44:08.358Z,23.30
2018-11-26T07:46:36.896Z,20.93
2018-11-26T07:49:06.055Z,22.67
2018-11-26T07:51:34.555Z,18.37
2018-11-26T07:54:03.071Z,20.63
2018-11-26T07:56:31.555Z,18.80
2018-11-26T07:59:00.041Z,18.90
2018-11-26T08:01:28.547Z,18.73
2018-11-26T08:03:57.026Z,18.10
2018-11-26T08:06:25.511Z,18.77
2018-11-26T08:08:54.100Z,16.77
2018-11-26T08:11:22.581Z,18.10
2018-11-26T08:13:51.051Z,19.07
2018-11-26T08:16:19.564Z,23.20
2018-11-26T08:18:48.047Z,16.37
2018-11-26T08:21:16.580Z,16.93
2018-11-26T08:23:45.073Z,18.63
2018-11-26T08:26:13.586Z,17.37
2018-11-26T08:28:42.055Z,17.17
2018-11-26T08:31:10.526Z,17.87
2018-11-26T08:33:39.004Z,17.27
2018-11-26T08:36:13.892Z,17.93
2018-11-26T08:38:47.637Z,17.83
2018-11-26T08:41:18.732Z,16.47
2018-11-26T08:43:52.525Z,16.63
2018-11-26T08:46:26.411Z,16.00
2018-11-26T08:49:00.266Z,17.53
2018-11-26T08:51:28.747Z,17.93
2018-11-26T08:53:57.255Z,18.53
2018-11-26T08:56:25.762Z,17.70
2018-11-26T08:58:54.284Z,18.00
2018-11-26T09:01:28.023Z,20.07
2018-11-26T09:03:56.523Z,19.30
2018-11-26T09:06:25.113Z,20.60
2018-11-26T09:08:53.620Z,19.70
2018-11-26T09:11:22.196Z,22.80
2018-11-26T09:13:50.684Z,20.20
2018-11-26T09:16:19.234Z,19.67
2018-11-26T09:18:47.723Z,20.67
2018-11-26T09:21:16.258Z,18.83
2018-11-26T09:23:44.780Z,21.53
2018-11-26T09:26:13.335Z,20.03
2018-11-26T09:28:41.882Z,20.93
2018-11-26T09:31:10.408Z,21.77
2018-11-26T09:33:38.843Z,21.00
2018-11-26T09:36:07.411Z,21.33
2018-11-26T09:38:35.906Z,23.37
2018-11-26T09:41:04.443Z,22.00
2018-11-26T09:43:33.018Z,20.07
2018-11-26T09:46:01.448Z,21.10
2018-11-26T09:48:29.942Z,20.37
2018-11-26T09:50:58.395Z,20.33
2018-11-26T09:53:26.875Z,18.50
2018-11-26T09:55:55.294Z,22.03
2018-11-26T09:58:23.754Z,21.73
2018-11-26T10:00:52.242Z,20.57
2018-11-26T10:03:20.686Z,21.27
2018-11-26T10:05:49.185Z,19.53
2018-11-26T10:08:17.728Z,18.83
2018-11-26T10:10:46.242Z,19.00
2018-11-26T10:13:14.723Z,19.87
2018-11-26T10:15:43.171Z,19.07
2018-11-26T10:18:11.658Z,17.70
2018-11-26T10:20:40.111Z,19.87
2018-11-26T10:23:08.615Z,19.30
2018-11-26T10:25:37.065Z,18.40
2018-11-26T10:28:05.646Z,18.27
2018-11-26T10:30:34.165Z,19.87
2018-11-26T10:33:02.715Z,20.83
2018-11-26T10:35:31.187Z,21.77
2018-11-26T10:37:59.704Z,17.23
2018-11-26T10:40:28.267Z,18.37
2018-11-26T10:42:56.734Z,19.07
2018-11-26T10:45:25.525Z,20.67
2018-11-26T10:47:53.980Z,19.17
2018-11-26T10:50:24.358Z,16.60
2018-11-26T10:52:55.989Z,21.33
2018-11-26T10:55:34.077Z,16.63
2018-11-26T10:58:02.978Z,17.67
2018-11-26T11:00:36.906Z,18.10
2018-11-26T11:03:07.435Z,19.40
2018-11-26T11:05:37.030Z,19.33
2018-11-26T11:08:06.388Z,17.03
2018-11-26T11:10:34.818Z,15.33
2018-11-26T11:13:03.310Z,16.10
2018-11-26T11:15:31.817Z,16.10
2018-11-26T11:18:00.298Z,17.47
2018-11-26T11:20:29.459Z,14.40
2018-11-26T11:22:57.958Z,18.50
2018-11-26T11:25:26.442Z,14.10
2018-11-26T11:27:56.326Z,15.50
2018-11-26T11:30:26.008Z,14.53
2018-11-26T11:32:54.509Z,15.80
2018-11-26T11:35:23.003Z,14.97
2018-11-26T11:37:52.364Z,14.97
2018-11-26T11:40:23.973Z,14.40
2018-11-26T11:42:52.563Z,14.10
2018-11-26T11:45:21.500Z,15.50
2018-11-26T11:47:49.956Z,15.33
2018-11-26T11:50:20.991Z,14.70
2018-11-26T11:52:49.772Z,16.13
2018-11-26T11:55:23.029Z,16.37
2018-11-26T11:57:52.004Z,16.27
2018-11-26T12:00:38.733Z,16.50
2018-11-26T12:03:09.477Z,17.43
2018-11-26T12:05:37.975Z,14.77
2018-11-26T12:08:07.564Z,16.27
2018-11-26T12:10:36.047Z,15.53
2018-11-26T12:13:04.632Z,17.57
2018-11-26T12:15:33.058Z,18.57
2018-11-26T12:18:01.494Z,16.13
2018-11-26T12:20:29.928Z,15.90
2018-11-26T12:22:58.412Z,18.17
2018-11-26T12:25:26.860Z,15.47
2018-11-26T12:27:55.330Z,16.10
2018-11-26T12:30:26.460Z,13.87
2018-11-26T12:32:54.525Z,15.30
2018-11-26T12:35:22.976Z,15.93
2018-11-26T12:37:51.683Z,13.90
2018-11-26T12:40:25.147Z,15.07
2018-11-26T12:42:54.958Z,15.57
2018-11-26T12:45:25.379Z,14.23
2018-11-26T12:47:53.884Z,14.80
2018-11-26T12:50:22.337Z,15.83
2018-11-26T12:52:50.820Z,15.87
2018-11-26T12:55:20.226Z,14.47
2018-11-26T12:57:49.348Z,13.97
2018-11-26T13:00:19.183Z,13.93
2018-11-26T13:02:50.693Z,13.93
2018-11-26T13:05:19.915Z,14.20
2018-11-26T13:07:48.343Z,13.73
2018-11-26T13:10:18.038Z,13.97
2018-11-26T13:12:47.220Z,14.53
2018-11-26T13:15:16.782Z,13.07
2018-11-26T13:17:45.267Z,14.70
2018-11-26T13:20:24.140Z,15.30
2018-11-26T13:22:52.954Z,13.27
2018-11-26T13:25:22.563Z,13.97
2018-11-26T13:27:52.069Z,13.50
2018-11-26T13:30:22.745Z,13.40
2018-11-26T13:32:52.595Z,13.60
2018-11-26T13:35:21.092Z,12.70
2018-11-26T13:37:49.571Z,14.03
2018-11-26T13:40:18.765Z,14.90
2018-11-26T13:42:47.366Z,14.43
2018-11-26T13:45:23.240Z,15.23
2018-11-26T13:47:51.740Z,12.00
2018-11-26T13:50:26.463Z,14.20
2018-11-26T13:52:55.111Z,14.43
2018-11-26T13:55:23.591Z,13.03
2018-11-26T13:57:52.025Z,13.70
2018-11-26T14:00:20.516Z,15.53
2018-11-26T14:02:48.975Z,16.07
2018-11-26T14:05:18.317Z,15.70
2018-11-26T14:07:47.309Z,15.97
2018-11-26T14:10:23.138Z,12.50
2018-11-26T14:12:59.037Z,14.10
2018-11-26T14:15:27.580Z,16.97
2018-11-26T14:17:56.049Z,14.70
2018-11-26T14:20:24.523Z,14.63
2018-11-26T14:22:52.959Z,14.57
2018-11-26T14:25:21.420Z,15.47
2018-11-26T14:27:49.924Z,14.60
2018-11-26T14:30:22.684Z,14.23
2018-11-26T14:32:51.189Z,17.77
2018-11-26T14:35:19.705Z,14.50
2018-11-26T14:37:50.623Z,14.47
2018-11-26T14:40:37.148Z,12.57
2018-11-26T14:43:05.651Z,15.13
2018-11-26T14:45:34.182Z,14.30
2018-11-26T14:48:02.649Z,15.93
2018-11-26T14:50:31.130Z,14.77
2018-11-26T14:53:03.324Z,17.33
2018-11-26T14:55:32.528Z,16.80
2018-11-26T14:58:01.113Z,16.37
2018-11-26T15:00:29.669Z,18.53
2018-11-26T15:02:58.180Z,15.77
2018-11-26T15:05:26.696Z,14.23
2018-11-26T15:07:55.196Z,16.43
2018-11-26T15:10:26.659Z,15.33
2018-11-26T15:12:55.149Z,15.90
2018-11-26T15:15:25.105Z,18.33
2018-11-26T15:17:53.636Z,18.00
2018-11-26T15:20:23.292Z,17.37
2018-11-26T15:22:52.665Z,17.17
2018-11-26T15:25:23.364Z,18.43
2018-11-26T15:27:53.004Z,16.83
2018-11-26T15:30:22.084Z,17.17
2018-11-26T15:32:50.596Z,15.40
2018-11-26T15:35:20.239Z,16.67
2018-11-26T15:37:48.724Z,17.00
2018-11-26T15:40:18.239Z,15.60
2018-11-26T15:42:46.739Z,18.93
2018-11-26T15:45:16.676Z,18.53
2018-11-26T15:47:45.247Z,17.63
2018-11-26T15:50:13.716Z,17.07
2018-11-26T15:52:42.201Z,19.70
2018-11-26T15:55:13.106Z,17.63
2018-11-26T15:57:41.668Z,18.10
2018-11-26T16:00:13.514Z,19.97
2018-11-26T16:02:42.028Z,19.63
2018-11-26T16:05:12.729Z,16.67
2018-11-26T16:07:41.849Z,16.17
2018-11-26T16:10:11.708Z,21.50
2018-11-26T16:12:40.416Z,19.17
2018-11-26T16:15:12.929Z,21.17
2018-11-26T16:17:41.477Z,17.80
2018-11-26T16:20:13.239Z,18.37
2018-11-26T16:22:41.888Z,19.67
2018-11-26T16:25:12.985Z,18.33
2018-11-26T16:27:41.456Z,21.03
2018-11-26T16:30:14.150Z,22.50
2018-11-26T16:32:44.009Z,22.00
2018-11-26T16:35:14.025Z,24.17
2018-11-26T16:37:42.540Z,22.70
2018-11-26T16:40:13.468Z,23.10
2018-11-26T16:42:41.973Z,21.60
2018-11-26T16:45:13.608Z,20.93
2018-11-26T16:47:42.266Z,23.50
2018-11-26T16:50:12.230Z,22.17
2018-11-26T16:52:40.803Z,21.97
2018-11-26T16:55:11.536Z,23.30
2018-11-26T16:57:40.130Z,22.17
2018-11-26T17:00:17.430Z,23.63
2018-11-26T17:02:46.551Z,19.87
2018-11-26T17:05:18.580Z,20.93
2018-11-26T17:07:47.079Z,23.67
2018-11-26T17:10:15.638Z,23.33
2018-11-26T17:12:44.145Z,21.73
2018-11-26T17:15:14.052Z,22.93
2018-11-26T17:17:42.672Z,21.83
2018-11-26T17:20:14.186Z,26.13
2018-11-26T17:22:42.857Z,23.50
2018-11-26T17:25:12.457Z,25.50
2018-11-26T17:27:41.431Z,23.10
2018-11-26T17:30:19.968Z,22.77
2018-11-26T17:32:52.732Z,25.07
2018-11-26T17:35:21.304Z,23.53
2018-11-26T17:37:49.846Z,24.50
2018-11-26T17:40:19.531Z,23.47
2018-11-26T17:42:48.129Z,26.03
2018-11-26T17:45:17.438Z,23.57
2018-11-26T17:47:53.880Z,23.97
2018-11-26T17:50:33.280Z,22.10
2018-11-26T17:53:01.838Z,20.67
2018-11-26T17:55:30.428Z,26.17
2018-11-26T17:57:58.973Z,23.40
2018-11-26T18:00:29.326Z,23.10
2018-11-26T18:02:57.833Z,20.23
2018-11-26T18:05:27.752Z,24.37
2018-11-26T18:08:03.469Z,22.13
2018-11-26T18:10:32.012Z,22.17
2018-11-26T18:13:00.783Z,23.70
2018-11-26T18:15:29.320Z,25.67
2018-11-26T18:17:57.812Z,21.10
2018-11-26T18:20:26.368Z,22.77
2018-11-26T18:22:55.287Z,24.20
2018-11-26T18:25:24.632Z,22.13
2018-11-26T18:27:59.818Z,23.10
2018-11-26T18:30:32.336Z,21.43
2018-11-26T18:33:00.832Z,22.43
2018-11-26T18:35:29.370Z,21.80
2018-11-26T18:37:57.886Z,23.43
2018-11-26T18:40:26.377Z,22.17
2018-11-26T18:42:54.894Z,24.00
2018-11-26T18:45:23.410Z,23.37
2018-11-26T18:47:51.971Z,24.70
2018-11-26T18:50:21.547Z,24.67
2018-11-26T18:52:50.760Z,24.00
2018-11-26T18:55:19.563Z,29.03
2018-11-26T18:57:48.135Z,27.40
2018-11-26T19:00:21.526Z,25.03
2018-11-26T19:02:50.490Z,25.47
2018-11-26T19:05:19.472Z,27.70
2018-11-26T19:07:48.028Z,27.53
2018-11-26T19:10:23.560Z,28.77
2018-11-26T19:12:56.953Z,26.17
2018-11-26T19:15:31.372Z,27.73
2018-11-26T19:18:09.854Z,28.60
2018-11-26T19:20:38.382Z,26.20
2018-11-26T19:23:06.976Z,28.33
2018-11-26T19:25:35.468Z,29.73
2018-11-26T19:28:04.104Z,30.63
2018-11-26T19:30:32.609Z,30.93
2018-11-26T19:33:01.136Z,32.53
2018-11-26T19:35:29.669Z,32.07
2018-11-26T19:37:58.197Z,28.47
2018-11-26T19:40:26.947Z,31.13
2018-11-26T19:42:55.765Z,32.57
2018-11-26T19:45:28.729Z,32.27
2018-11-26T19:47:57.523Z,32.73
2018-11-26T19:50:26.292Z,35.13
2018-11-26T19:52:55.249Z,34.57
2018-11-26T19:55:25.528Z,32.13
2018-11-26T19:57:56.568Z,34.83
2018-11-26T20:00:29.252Z,32.43
2018-11-26T20:03:11.591Z,35.97
2018-11-26T20:06:19.862Z,33.10
2018-11-26T20:08:51.707Z,32.40
2018-11-26T20:11:20.441Z,33.00
2018-11-26T20:13:49.192Z,33.17
2018-11-26T20:16:20.388Z,33.67
2018-11-26T20:18:49.057Z,34.50
2018-11-26T20:21:17.624Z,35.43
2018-11-26T20:23:46.332Z,34.53
2018-11-26T20:26:14.890Z,35.90
2018-11-26T20:28:43.542Z,36.67
2018-11-26T20:31:12.307Z,34.60
2018-11-26T20:33:40.936Z,34.93
2018-11-26T20:36:11.391Z,32.60
2018-11-26T20:38:39.980Z,33.87
2018-11-26T20:41:09.742Z,37.00
2018-11-26T20:43:38.316Z,33.63
2018-11-26T20:46:07.017Z,34.23
2018-11-26T20:48:35.733Z,39.13
2018-11-26T20:51:04.469Z,32.60
2018-11-26T20:53:32.980Z,35.13
2018-11-26T20:56:02.729Z,33.13
2018-11-26T20:58:31.359Z,35.87
2018-11-26T21:00:59.854Z,34.80
2018-11-26T21:03:32.221Z,34.27
2018-11-26T21:06:00.753Z,32.03
2018-11-26T21:08:29.313Z,34.63
2018-11-26T21:10:57.820Z,31.80
2018-11-26T21:13:26.381Z,32.03
2018-11-26T21:15:54.933Z,30.70
2018-11-26T21:18:23.496Z,31.83
2018-11-26T21:20:52.069Z,34.77
2018-11-26T21:23:25.242Z,34.10
2018-11-26T21:25:54.611Z,31.73
2018-11-26T21:28:23.106Z,33.00
2018-11-26T21:30:52.190Z,30.63
2018-11-26T21:33:20.210Z,32.93
2018-11-26T21:35:48.809Z,31.13
2018-11-26T21:38:17.417Z,32.63
2018-11-26T21:40:46.028Z,33.03
2018-11-26T21:43:14.568Z,30.53
2018-11-26T21:45:51.009Z,33.53
2018-11-26T21:48:19.525Z,31.30
2018-11-26T21:50:48.116Z,33.60
2018-11-26T21:53:16.651Z,30.87
2018-11-26T21:55:45.216Z,30.47
2018-11-26T21:58:13.714Z,33.33
2018-11-26T22:00:42.669Z,33.27
2018-11-26T22:03:12.320Z,30.37
2018-11-26T22:05:42.162Z,30.63
2018-11-26T22:08:11.280Z,30.23
2018-11-26T22:10:41.775Z,32.60
2018-11-26T22:13:14.229Z,34.93
2018-11-26T22:15:42.732Z,32.33
2018-11-26T22:18:11.278Z,31.87
2018-11-26T22:20:39.801Z,32.70
2018-11-26T22:23:08.636Z,31.97
2018-11-26T22:25:37.291Z,33.63
2018-11-26T22:28:07.974Z,38.13
2018-11-26T22:30:37.282Z,32.50
2018-11-26T22:33:06.101Z,34.57
2018-11-26T22:35:34.652Z,33.67
2018-11-26T22:38:03.227Z,35.93
2018-11-26T22:40:31.765Z,31.50
2018-11-26T22:43:00.274Z,39.60
2018-11-26T22:45:31.197Z,36.80
2018-11-26T22:48:04.191Z,37.73
2018-11-26T22:50:32.800Z,34.37
2018-11-26T22:53:01.376Z,36.13
2018-11-26T22:55:29.953Z,33.77
2018-11-26T22:57:58.437Z,34.23
2018-11-26T23:00:39.296Z,31.87
2018-11-26T23:03:07.837Z,35.63
2018-11-26T23:05:36.478Z,35.80
2018-11-26T23:08:05.405Z,35.50
2018-11-26T23:10:33.952Z,35.70
2018-11-26T23:13:02.517Z,35.27
2018-11-26T23:15:31.110Z,38.17
2018-11-26T23:17:59.588Z,35.17
2018-11-26T23:20:28.097Z,35.67
2018-11-26T23:22:56.632Z,37.97
2018-11-26T23:25:25.216Z,40.90
2018-11-26T23:27:53.690Z,39.97
2018-11-26T23:30:25.474Z,40.90
2018-11-26T23:32:58.281Z,38.07
2018-11-26T23:35:26.916Z,39.47
2018-11-26T23:37:55.532Z,40.40
2018-11-26T23:40:24.140Z,36.23
2018-11-26T23:42:52.714Z,36.93
2018-11-26T23:45:26.219Z,36.57
2018-11-26T23:47:54.748Z,36.40
2018-11-26T23:50:23.339Z,37.13
2018-11-26T23:52:51.874Z,37.43
2018-11-26T23:55:22.200Z,41.60
2018-11-26T23:57:51.011Z,39.20
